createdAt,value
2022-11-06T00:02:20.510Z,16.00
2022-11-06T00:04:48.439Z,15.30
2022-11-06T00:07:15.784Z,15.85
2022-11-06T00:09:43.081Z,15.65
2022-11-06T00:12:10.288Z,16.83
2022-11-06T00:14:37.488Z,17.27
2022-11-06T00:17:04.914Z,17.75
2022-11-06T00:19:32.107Z,19.02
2022-11-06T00:21:59.265Z,16.23
2022-11-06T00:24:26.622Z,17.45
2022-11-06T00:26:54.725Z,18.17
2022-11-06T00:29:22.144Z,18.60
2022-11-06T00:31:50.781Z,17.75
2022-11-06T00:34:18.118Z,18.88
2022-11-06T00:36:45.382Z,18.42
2022-11-06T00:39:12.656Z,17.58
2022-11-06T00:41:39.874Z,17.17
2022-11-06T00:44:07.047Z,17.35
2022-11-06T00:46:34.247Z,17.95
2022-11-06T00:49:01.541Z,15.82
2022-11-06T00:51:36.060Z,15.75
2022-11-06T00:54:07.262Z,15.68
2022-11-06T00:56:34.652Z,13.57
2022-11-06T00:59:07.249Z,14.55
2022-11-06T01:01:44.005Z,15.07
2022-11-06T01:04:21.822Z,15.65
2022-11-06T01:06:56.711Z,15.20
2022-11-06T01:09:28.345Z,15.75
2022-11-06T01:12:15.174Z,15.40
2022-11-06T01:14:43.968Z,14.85
2022-11-06T01:17:12.135Z,14.55
2022-11-06T01:19:40.231Z,13.57
2022-11-06T01:22:07.424Z,13.70
2022-11-06T01:24:35.060Z,13.75
2022-11-06T01:27:25.595Z,14.23
2022-11-06T01:29:49.724Z,14.00
2022-11-06T01:32:16.935Z,14.73
2022-11-06T01:34:44.144Z,14.43
2022-11-06T01:37:14.428Z,14.65
2022-11-06T01:39:42.923Z,13.48
2022-11-06T01:42:14.083Z,13.10
2022-11-06T01:44:41.232Z,14.15
2022-11-06T01:47:27.896Z,12.73
2022-11-06T01:50:07.656Z,12.73
2022-11-06T01:52:36.023Z,11.63
2022-11-06T01:55:30.494Z,12.27
2022-11-06T01:58:00.765Z,11.70
2022-11-06T02:00:30.974Z,11.05
2022-11-06T02:02:59.231Z,11.27
2022-11-06T02:05:27.071Z,12.40
2022-11-06T02:07:56.140Z,11.90
2022-11-06T02:10:23.845Z,10.50
2022-11-06T02:13:39.324Z,11.55
2022-11-06T02:17:04.358Z,10.88
2022-11-06T02:20:02.492Z,10.00
2022-11-06T02:23:29.985Z,11.40
2022-11-06T02:26:43.459Z,10.50
2022-11-06T02:29:26.321Z,12.10
2022-11-06T02:31:59.782Z,11.30
2022-11-06T02:34:28.895Z,10.65
2022-11-06T02:37:06.320Z,10.18
2022-11-06T02:39:37.231Z,10.05
2022-11-06T02:42:07.902Z,9.38
2022-11-06T02:44:38.842Z,11.15
2022-11-06T02:47:11.383Z,10.93
2022-11-06T02:49:56.570Z,11.10
2022-11-06T02:52:31.942Z,10.23
2022-11-06T02:55:13.013Z,11.10
2022-11-06T02:57:50.121Z,10.98
2022-11-06T03:00:18.176Z,10.40
2022-11-06T03:02:58.969Z,9.85
2022-11-06T03:05:44.077Z,10.18
2022-11-06T03:08:54.662Z,10.05
2022-11-06T03:11:31.139Z,9.73
2022-11-06T03:14:19.724Z,10.00
2022-11-06T03:17:18.959Z,9.75
2022-11-06T03:20:01.636Z,9.93
2022-11-06T03:22:46.133Z,9.27
2022-11-06T03:25:52.625Z,9.50
2022-11-06T03:28:34.706Z,8.65
2022-11-06T03:31:15.998Z,8.13
2022-11-06T03:34:01.780Z,8.32
2022-11-06T03:36:41.952Z,8.95
2022-11-06T03:39:17.518Z,8.48
2022-11-06T03:42:13.156Z,7.88
2022-11-06T03:44:52.437Z,8.13
2022-11-06T03:47:30.237Z,8.60
2022-11-06T03:50:17.996Z,8.90
2022-11-06T03:53:15.612Z,8.93
2022-11-06T03:55:57.235Z,7.90
2022-11-06T03:58:33.658Z,8.45
2022-11-06T04:01:06.040Z,7.43
2022-11-06T04:04:00.151Z,8.43
2022-11-06T04:06:49.711Z,7.35
2022-11-06T04:09:36.977Z,7.68
2022-11-06T04:12:25.593Z,7.15
2022-11-06T04:14:56.817Z,7.57
2022-11-06T04:17:26.864Z,7.68
2022-11-06T04:20:03.645Z,7.32
2022-11-06T04:23:14.167Z,7.93
2022-11-06T04:26:37.987Z,7.95
2022-11-06T04:29:27.051Z,8.05
2022-11-06T04:32:39.241Z,7.95
2022-11-06T04:35:29.581Z,8.23
2022-11-06T04:38:37.312Z,7.82
2022-11-06T04:41:34.981Z,7.85
2022-11-06T04:44:13.834Z,7.78
2022-11-06T04:46:55.011Z,7.38
2022-11-06T04:49:24.071Z,8.05
2022-11-06T04:51:52.247Z,7.72
2022-11-06T04:54:20.265Z,8.13
2022-11-06T04:56:47.603Z,7.45
2022-11-06T04:59:18.125Z,7.88
2022-11-06T05:01:47.214Z,8.77
2022-11-06T05:04:15.365Z,8.90
2022-11-06T05:06:42.844Z,8.00
2022-11-06T05:09:10.134Z,7.63
2022-11-06T05:11:38.381Z,7.78
2022-11-06T05:14:05.780Z,7.90
2022-11-06T05:16:33.064Z,8.15
2022-11-06T05:19:00.211Z,8.52
2022-11-06T05:21:45.877Z,7.32
2022-11-06T05:24:13.068Z,7.60
2022-11-06T05:26:40.416Z,7.47
2022-11-06T05:29:08.559Z,7.00
2022-11-06T05:31:35.739Z,6.47
2022-11-06T05:34:02.913Z,7.35
2022-11-06T05:36:30.066Z,7.05
2022-11-06T05:38:57.302Z,7.40
2022-11-06T05:41:24.567Z,8.80
2022-11-06T05:43:51.921Z,7.72
2022-11-06T05:46:46.503Z,7.45
2022-11-06T05:49:06.494Z,8.10
2022-11-06T05:51:33.726Z,7.30
2022-11-06T05:54:01.043Z,7.53
2022-11-06T05:56:28.205Z,7.65
2022-11-06T05:58:55.448Z,7.80
2022-11-06T06:01:22.615Z,6.65
2022-11-06T06:03:49.768Z,6.97
2022-11-06T06:06:17.162Z,6.95
2022-11-06T06:08:44.410Z,7.20
2022-11-06T06:11:11.653Z,6.80
2022-11-06T06:13:38.929Z,6.80
2022-11-06T06:16:07.065Z,8.23
2022-11-06T06:18:34.379Z,7.90
2022-11-06T06:21:01.678Z,7.57
2022-11-06T06:23:28.840Z,7.32
2022-11-06T06:25:57.484Z,7.15
2022-11-06T06:28:24.926Z,7.65
2022-11-06T06:30:55.818Z,6.95
2022-11-06T06:33:25.843Z,7.32
2022-11-06T06:35:52.965Z,6.43
2022-11-06T06:38:20.068Z,6.78
2022-11-06T06:40:47.405Z,6.85
2022-11-06T06:43:14.793Z,7.20
2022-11-06T06:45:42.008Z,6.60
2022-11-06T06:48:09.448Z,6.50
2022-11-06T06:50:36.692Z,6.43
2022-11-06T06:53:03.900Z,6.65
2022-11-06T06:55:31.128Z,6.18
2022-11-06T06:58:00.592Z,6.00
2022-11-06T07:00:29.330Z,6.25
2022-11-06T07:02:56.922Z,6.55
2022-11-06T07:05:24.796Z,6.30
2022-11-06T07:07:51.943Z,6.30
2022-11-06T07:10:19.485Z,5.78
2022-11-06T07:12:46.813Z,5.88
2022-11-06T07:15:14.623Z,5.70
2022-11-06T07:17:42.360Z,5.68
2022-11-06T07:20:10.873Z,5.18
2022-11-06T07:22:38.036Z,4.50
2022-11-06T07:25:06.679Z,4.13
2022-11-06T07:27:34.049Z,3.65
2022-11-06T07:30:01.433Z,3.63
2022-11-06T07:32:29.139Z,4.88
2022-11-06T07:34:56.412Z,3.70
2022-11-06T07:37:23.633Z,4.03
2022-11-06T07:39:50.895Z,3.88
2022-11-06T07:42:18.303Z,3.60
2022-11-06T07:44:57.635Z,4.07
2022-11-06T07:47:24.983Z,3.78
2022-11-06T07:49:52.353Z,3.60
2022-11-06T07:52:19.681Z,3.00
2022-11-06T07:54:46.975Z,3.28
2022-11-06T07:57:14.570Z,3.33
2022-11-06T07:59:42.508Z,2.85
2022-11-06T08:02:14.434Z,2.80
2022-11-06T08:04:41.701Z,3.00
2022-11-06T08:07:09.291Z,2.97
2022-11-06T08:09:36.611Z,3.80
2022-11-06T08:12:04.133Z,3.05
2022-11-06T08:14:31.274Z,3.10
2022-11-06T08:16:58.707Z,2.50
2022-11-06T08:19:25.956Z,1.70
2022-11-06T08:21:53.150Z,1.50
2022-11-06T08:24:22.192Z,1.70
2022-11-06T08:26:50.109Z,1.55
2022-11-06T08:29:17.707Z,2.00
2022-11-06T08:31:44.949Z,3.05
2022-11-06T08:34:12.428Z,2.30
2022-11-06T08:36:50.055Z,2.20
2022-11-06T08:39:17.259Z,2.05
2022-11-06T08:41:45.185Z,2.60
2022-11-06T08:44:12.451Z,1.75
2022-11-06T08:46:39.630Z,1.80
2022-11-06T08:49:06.893Z,1.50
2022-11-06T08:51:34.182Z,1.00
2022-11-06T08:54:01.546Z,0.90
2022-11-06T08:56:28.809Z,0.85
2022-11-06T08:58:56.099Z,1.50
2022-11-06T09:01:24.267Z,1.33
2022-11-06T09:03:51.595Z,1.35
2022-11-06T09:06:18.774Z,1.20
2022-11-06T09:08:46.048Z,1.30
2022-11-06T09:11:13.373Z,1.55
2022-11-06T09:13:40.621Z,1.77
2022-11-06T09:16:11.447Z,1.38
2022-11-06T09:18:41.703Z,1.25
2022-11-06T09:21:08.906Z,1.40
2022-11-06T09:23:36.126Z,1.30
2022-11-06T09:26:04.050Z,1.63
2022-11-06T09:28:31.342Z,1.80
2022-11-06T09:30:58.569Z,1.20
2022-11-06T09:33:25.800Z,1.63
2022-11-06T09:35:53.026Z,3.83
2022-11-06T09:38:20.202Z,4.40
2022-11-06T09:40:58.009Z,4.90
2022-11-06T09:44:04.062Z,3.50
2022-11-06T09:46:47.302Z,3.97
2022-11-06T09:49:38.753Z,2.30
2022-11-06T09:52:47.818Z,1.67
2022-11-06T09:55:33.677Z,1.50
2022-11-06T09:58:21.923Z,2.17
2022-11-06T10:00:53.428Z,1.92
2022-11-06T10:03:45.477Z,2.08
2022-11-06T10:06:13.227Z,1.95
2022-11-06T10:08:43.850Z,1.80
2022-11-06T10:11:14.118Z,1.83
2022-11-06T10:14:39.696Z,1.50
2022-11-06T10:17:26.450Z,2.20
2022-11-06T10:20:27.089Z,3.35
2022-11-06T10:23:11.099Z,3.88
2022-11-06T10:25:46.683Z,4.65
2022-11-06T10:31:50.415Z,5.35
2022-11-06T10:34:41.564Z,6.13
2022-11-06T10:37:20.713Z,6.95
2022-11-06T10:39:49.499Z,7.88
2022-11-06T10:42:22.201Z,7.30
2022-11-06T10:45:04.735Z,6.68
2022-11-06T10:47:52.010Z,6.40
2022-11-06T10:50:19.432Z,5.80
2022-11-06T10:53:34.218Z,5.15
2022-11-06T10:56:39.156Z,4.32
2022-11-06T10:59:07.579Z,4.55
2022-11-06T11:01:34.916Z,4.53
2022-11-06T11:04:02.162Z,5.10
2022-11-06T11:06:29.379Z,5.00
2022-11-06T11:08:56.686Z,4.95
2022-11-06T11:11:29.205Z,4.88
2022-11-06T11:13:56.257Z,4.57
2022-11-06T11:16:32.748Z,5.00
2022-11-06T11:19:27.343Z,5.05
2022-11-06T11:22:16.172Z,4.75
2022-11-06T11:25:22.538Z,5.53
2022-11-06T11:27:49.953Z,5.43
2022-11-06T11:30:26.242Z,5.65
2022-11-06T11:32:54.428Z,5.53
2022-11-06T11:35:29.852Z,5.60
2022-11-06T11:38:14.055Z,4.90
2022-11-06T11:40:42.669Z,5.18
2022-11-06T11:43:30.578Z,5.70
2022-11-06T11:46:08.350Z,5.63
2022-11-06T11:48:55.665Z,5.53
2022-11-06T11:51:39.513Z,5.85
2022-11-06T11:54:15.262Z,5.35
2022-11-06T11:57:08.382Z,5.95
2022-11-06T11:59:48.256Z,6.65
2022-11-06T12:02:36.969Z,5.75
2022-11-06T12:05:20.982Z,6.20
2022-11-06T12:08:00.124Z,5.97
2022-11-06T12:10:43.478Z,6.65
2022-11-06T12:13:15.102Z,6.65
2022-11-06T12:16:08.789Z,5.75
2022-11-06T12:18:55.961Z,5.78
2022-11-06T12:21:33.733Z,5.20
2022-11-06T12:24:17.805Z,5.03
2022-11-06T12:26:58.429Z,5.22
2022-11-06T12:29:44.138Z,4.70
2022-11-06T12:33:01.846Z,4.85
2022-11-06T12:35:38.594Z,4.85
2022-11-06T12:38:25.448Z,4.78
2022-11-06T12:41:12.056Z,5.78
2022-11-06T12:43:49.925Z,4.35
2022-11-06T12:46:56.090Z,4.63
2022-11-06T12:50:01.184Z,5.32
2022-11-06T12:52:49.317Z,4.90
2022-11-06T12:55:45.996Z,4.88
2022-11-06T12:58:28.054Z,4.97
2022-11-06T13:01:35.722Z,4.90
2022-11-06T13:04:48.514Z,4.50
2022-11-06T13:07:15.869Z,4.72
2022-11-06T13:10:19.805Z,4.40
2022-11-06T13:13:02.924Z,5.38
2022-11-06T13:15:40.422Z,4.90
2022-11-06T13:18:18.216Z,5.38
2022-11-06T13:21:20.459Z,4.65
2022-11-06T13:23:56.264Z,5.10
2022-11-06T13:26:34.553Z,4.20
2022-11-06T13:29:10.295Z,4.80
2022-11-06T13:34:38.092Z,5.72
2022-11-06T13:37:20.698Z,4.45
2022-11-06T13:40:06.366Z,5.50
2022-11-06T13:42:45.405Z,10.63
2022-11-06T13:45:17.592Z,5.47
2022-11-06T13:47:59.508Z,5.18
2022-11-06T13:50:44.468Z,5.13
2022-11-06T13:53:59.697Z,5.35
2022-11-06T13:57:19.385Z,5.40
2022-11-06T14:00:24.979Z,5.95
2022-11-06T14:03:42.455Z,4.70
2022-11-06T14:06:31.071Z,4.40
2022-11-06T14:09:09.732Z,4.60
2022-11-06T14:11:42.265Z,4.93
2022-11-06T14:14:22.245Z,4.65
2022-11-06T14:17:15.553Z,4.82
2022-11-06T14:19:50.304Z,4.10
2022-11-06T14:22:38.708Z,5.22
2022-11-06T14:25:29.073Z,4.40
2022-11-06T14:27:56.033Z,4.93
2022-11-06T14:30:50.310Z,5.07
2022-11-06T14:33:43.030Z,4.47
2022-11-06T14:36:36.954Z,5.78
2022-11-06T14:39:10.376Z,5.15
2022-11-06T14:41:39.563Z,7.05
2022-11-06T14:44:32.802Z,5.55
2022-11-06T14:47:03.900Z,4.97
2022-11-06T14:49:46.301Z,4.63
2022-11-06T14:52:16.027Z,5.18
2022-11-06T14:55:06.259Z,5.82
2022-11-06T14:57:45.704Z,5.13
2022-11-06T15:00:44.442Z,5.20
2022-11-06T15:03:40.633Z,4.95
2022-11-06T15:06:16.708Z,4.97
2022-11-06T15:08:46.953Z,5.20
2022-11-06T15:11:49.875Z,4.20
2022-11-06T15:14:16.851Z,5.50
2022-11-06T15:17:00.638Z,5.40
2022-11-06T15:19:38.592Z,4.90
2022-11-06T15:22:18.900Z,4.35
2022-11-06T15:25:00.450Z,5.18
2022-11-06T15:27:43.053Z,5.82
2022-11-06T15:30:18.003Z,6.50
2022-11-06T15:32:48.400Z,6.17
2022-11-06T15:35:28.756Z,5.78
2022-11-06T15:38:20.673Z,6.25
2022-11-06T15:40:51.545Z,5.40
2022-11-06T15:43:29.866Z,5.60
2022-11-06T15:46:12.247Z,5.93
2022-11-06T15:48:39.416Z,7.05
2022-11-06T15:51:29.239Z,6.68
2022-11-06T15:53:56.427Z,6.22
2022-11-06T15:56:33.408Z,5.78
2022-11-06T15:59:17.050Z,6.85
2022-11-06T16:01:49.280Z,5.75
2022-11-06T16:04:25.791Z,6.35
2022-11-06T16:06:55.230Z,5.85
2022-11-06T16:09:26.457Z,6.68
2022-11-06T16:11:54.613Z,7.50
2022-11-06T16:14:22.346Z,6.70
2022-11-06T16:16:53.254Z,7.30
2022-11-06T16:19:37.834Z,7.22
2022-11-06T16:22:14.641Z,6.60
2022-11-06T16:25:05.266Z,7.13
2022-11-06T16:27:36.856Z,7.65
2022-11-06T16:30:06.516Z,7.72
2022-11-06T16:32:43.348Z,7.03
2022-11-06T16:35:36.368Z,7.68
2022-11-06T16:38:42.359Z,7.40
2022-11-06T16:41:36.897Z,7.32
2022-11-06T16:44:44.783Z,7.47
2022-11-06T16:47:21.611Z,7.35
2022-11-06T16:49:55.185Z,7.78
2022-11-06T16:52:34.228Z,8.40
2022-11-06T16:55:28.365Z,7.97
2022-11-06T16:58:00.167Z,8.27
2022-11-06T17:00:34.568Z,9.38
2022-11-06T17:03:14.647Z,9.63
2022-11-06T17:05:56.846Z,10.48
2022-11-06T17:08:39.228Z,8.43
2022-11-06T17:11:12.501Z,7.82
2022-11-06T17:13:44.355Z,7.95
2022-11-06T17:16:20.039Z,10.05
2022-11-06T17:21:25.245Z,9.40
2022-11-06T17:23:53.334Z,9.65
2022-11-06T17:26:28.594Z,9.98
2022-11-06T17:28:58.082Z,10.13
2022-11-06T17:31:26.750Z,10.70
2022-11-06T17:33:54.312Z,9.75
2022-11-06T17:36:28.005Z,10.50
2022-11-06T17:38:57.430Z,10.95
2022-11-06T17:41:29.884Z,11.57
2022-11-06T17:44:08.259Z,12.60
2022-11-06T17:46:46.245Z,11.95
2022-11-06T17:49:18.168Z,13.30
2022-11-06T17:51:50.547Z,14.25
2022-11-06T17:54:32.170Z,13.90
2022-11-06T17:57:04.052Z,13.90
2022-11-06T17:59:32.099Z,12.85
2022-11-06T18:02:00.372Z,16.92
2022-11-06T18:04:34.311Z,18.85
2022-11-06T18:07:01.899Z,19.42
2022-11-06T18:09:29.334Z,19.80
2022-11-06T18:11:56.982Z,18.40
2022-11-06T18:14:26.643Z,16.83
2022-11-06T18:16:54.405Z,14.52
2022-11-06T18:19:24.683Z,13.60
2022-11-06T18:21:53.095Z,13.40
2022-11-06T18:24:20.601Z,13.23
2022-11-06T18:26:47.915Z,11.57
2022-11-06T18:29:15.502Z,13.30
2022-11-06T18:31:45.413Z,13.77
2022-11-06T18:34:20.301Z,14.15
2022-11-06T18:36:50.793Z,14.65
2022-11-06T18:39:21.227Z,13.10
2022-11-06T18:41:49.094Z,15.10
2022-11-06T18:44:18.112Z,14.90
2022-11-06T18:46:46.836Z,15.23
2022-11-06T18:49:15.144Z,12.88
2022-11-06T18:51:43.892Z,13.77
2022-11-06T18:54:13.626Z,13.90
2022-11-06T18:56:41.211Z,14.60
2022-11-06T18:59:16.569Z,15.95
2022-11-06T19:01:44.012Z,15.77
2022-11-06T19:04:11.712Z,16.75
2022-11-06T19:06:40.128Z,18.45
2022-11-06T19:09:09.829Z,27.77
2022-11-06T19:11:37.096Z,22.75
2022-11-06T19:14:04.698Z,23.00
2022-11-06T19:16:32.031Z,24.92
2022-11-06T19:21:35.802Z,36.67
2022-11-06T19:24:05.821Z,29.48
2022-11-06T19:26:36.001Z,22.92
2022-11-06T19:29:24.406Z,22.90
2022-11-06T19:31:55.047Z,25.80
2022-11-06T19:34:25.525Z,21.02
2022-11-06T19:36:54.688Z,19.35
2022-11-06T19:39:25.253Z,16.90
2022-11-06T19:41:59.216Z,14.85
2022-11-06T19:44:28.924Z,15.15
2022-11-06T19:46:59.449Z,14.55
2022-11-06T19:49:28.032Z,15.57
2022-11-06T19:52:42.036Z,14.75
2022-11-06T19:55:25.732Z,14.82
2022-11-06T19:57:58.780Z,16.08
2022-11-06T20:00:29.829Z,15.43
2022-11-06T20:02:59.222Z,18.63
2022-11-06T20:05:31.296Z,15.95
2022-11-06T20:07:59.953Z,16.67
2022-11-06T20:10:33.786Z,15.15
2022-11-06T20:13:05.755Z,14.02
2022-11-06T20:15:37.248Z,16.40
2022-11-06T20:18:10.324Z,17.50
2022-11-06T20:20:39.967Z,17.02
2022-11-06T20:23:13.248Z,14.70
2022-11-06T20:25:44.951Z,14.40
2022-11-06T20:28:14.043Z,15.52
2022-11-06T20:30:46.045Z,15.02
2022-11-06T20:33:17.840Z,17.08
2022-11-06T20:35:46.369Z,19.98
2022-11-06T20:38:14.801Z,23.80
2022-11-06T20:40:46.496Z,22.00
2022-11-06T20:43:15.203Z,28.05
2022-11-06T20:45:43.949Z,25.67
2022-11-06T20:48:13.702Z,19.33
2022-11-06T20:50:43.970Z,18.25
2022-11-06T20:53:12.974Z,18.20
2022-11-06T20:55:44.247Z,17.50
2022-11-06T20:58:15.331Z,17.75
2022-11-06T21:00:48.245Z,15.63
2022-11-06T21:03:19.264Z,16.70
2022-11-06T21:05:48.783Z,17.70
2022-11-06T21:08:19.625Z,16.38
2022-11-06T21:11:06.246Z,16.75
2022-11-06T21:13:35.811Z,17.35
2022-11-06T21:16:13.483Z,16.17
2022-11-06T21:18:45.836Z,16.52
2022-11-06T21:21:22.346Z,16.83
2022-11-06T21:23:55.794Z,15.50
2022-11-06T21:26:32.438Z,15.55
2022-11-06T21:29:09.272Z,17.30
2022-11-06T21:31:48.886Z,18.55
2022-11-06T21:34:30.746Z,17.73
2022-11-06T21:37:02.804Z,15.68
2022-11-06T21:39:35.781Z,16.20
2022-11-06T21:42:05.398Z,18.58
2022-11-06T21:44:33.688Z,16.02
2022-11-06T21:47:00.857Z,16.45
2022-11-06T21:49:28.011Z,15.65
2022-11-06T21:52:15.230Z,16.67
2022-11-06T21:55:01.010Z,18.10
2022-11-06T21:57:28.115Z,17.42
2022-11-06T21:59:55.292Z,18.70
2022-11-06T22:02:22.641Z,18.65
2022-11-06T22:04:49.948Z,19.67
2022-11-06T22:07:17.287Z,20.63
2022-11-06T22:09:44.449Z,21.27
2022-11-06T22:12:11.583Z,18.75
2022-11-06T22:14:38.750Z,16.40
2022-11-06T22:17:05.900Z,16.10
2022-11-06T22:19:33.024Z,15.00
2022-11-06T22:22:00.143Z,16.67
2022-11-06T22:24:27.463Z,15.68
2022-11-06T22:26:55.414Z,15.98
2022-11-06T22:29:22.535Z,15.60
2022-11-06T22:31:49.828Z,15.23
2022-11-06T22:34:17.080Z,16.00
2022-11-06T22:36:44.330Z,15.95
2022-11-06T22:39:12.483Z,14.88
2022-11-06T22:41:40.268Z,14.30
2022-11-06T22:44:08.081Z,14.20
2022-11-06T22:46:35.687Z,14.50
2022-11-06T22:49:04.619Z,14.80
2022-11-06T22:51:33.073Z,13.95
2022-11-06T22:54:02.015Z,14.00
2022-11-06T22:56:31.331Z,14.07
2022-11-06T22:59:03.894Z,12.95
2022-11-06T23:01:37.256Z,13.40
2022-11-06T23:04:16.169Z,13.85
2022-11-06T23:06:45.660Z,13.52
2022-11-06T23:09:14.477Z,14.65
2022-11-06T23:11:45.207Z,13.93
2022-11-06T23:14:12.445Z,17.05
2022-11-06T23:16:57.835Z,20.13
2022-11-06T23:19:26.695Z,18.42
2022-11-06T23:22:16.788Z,15.30
2022-11-06T23:24:44.511Z,16.38
2022-11-06T23:27:12.326Z,17.48
2022-11-06T23:29:40.145Z,17.25
2022-11-06T23:32:07.653Z,17.77
2022-11-06T23:34:35.006Z,17.20
2022-11-06T23:37:02.235Z,18.23
2022-11-06T23:39:29.455Z,17.95
2022-11-06T23:41:56.687Z,17.38
2022-11-06T23:44:42.439Z,18.75
2022-11-06T23:47:09.579Z,17.33
2022-11-06T23:49:36.700Z,17.30
2022-11-06T23:52:04.102Z,16.13
2022-11-06T23:54:31.675Z,15.93
2022-11-06T23:56:58.893Z,16.20
2022-11-06T23:59:26.041Z,15.82
